createdAt,value
2022-12-27T00:02:18.353Z,1.80
2022-12-27T00:04:45.192Z,1.40
2022-12-27T00:07:11.984Z,1.80
2022-12-27T00:09:38.956Z,1.53
2022-12-27T00:12:05.907Z,1.70
2022-12-27T00:14:32.686Z,1.50
2022-12-27T00:16:59.349Z,1.50
2022-12-27T00:19:26.083Z,1.60
2022-12-27T00:21:52.765Z,1.43
2022-12-27T00:24:19.443Z,1.70
2022-12-27T00:26:46.185Z,1.60
2022-12-27T00:29:13.197Z,1.70
2022-12-27T00:31:39.949Z,1.57
2022-12-27T00:34:07.886Z,1.20
2022-12-27T00:36:35.090Z,1.10
2022-12-27T00:39:02.191Z,1.47
2022-12-27T00:41:29.078Z,1.33
2022-12-27T00:43:56.234Z,1.40
2022-12-27T00:46:23.313Z,1.30
2022-12-27T00:48:50.091Z,1.40
2022-12-27T00:51:22.632Z,1.53
2022-12-27T00:53:50.666Z,2.03
2022-12-27T00:56:26.851Z,1.80
2022-12-27T00:59:02.204Z,1.53
2022-12-27T01:01:32.244Z,1.97
2022-12-27T01:03:59.425Z,2.33
2022-12-27T01:06:29.247Z,1.50
2022-12-27T01:08:56.778Z,1.90
2022-12-27T01:11:24.541Z,1.80
2022-12-27T01:13:51.402Z,1.80
2022-12-27T01:16:21.781Z,1.60
2022-12-27T01:18:49.751Z,1.63
2022-12-27T01:21:20.160Z,1.60
2022-12-27T01:23:47.654Z,1.70
2022-12-27T01:26:17.442Z,1.73
2022-12-27T01:28:44.721Z,1.53
2022-12-27T01:31:14.659Z,1.60
2022-12-27T01:33:41.691Z,1.40
2022-12-27T01:36:14.543Z,1.57
2022-12-27T01:38:44.660Z,2.00
2022-12-27T01:41:34.335Z,1.90
2022-12-27T01:44:01.126Z,1.90
2022-12-27T01:46:29.380Z,1.80
2022-12-27T01:48:56.467Z,1.83
2022-12-27T01:51:23.563Z,1.50
2022-12-27T01:53:51.967Z,1.77
2022-12-27T01:56:29.935Z,2.00
2022-12-27T01:59:07.739Z,1.53
2022-12-27T02:01:38.523Z,2.17
2022-12-27T02:04:14.480Z,1.73
2022-12-27T02:06:42.225Z,1.50
2022-12-27T02:09:18.049Z,1.90
2022-12-27T02:11:52.225Z,2.20
2022-12-27T02:14:32.787Z,1.67
2022-12-27T02:17:12.277Z,2.17
2022-12-27T02:19:41.938Z,1.83
2022-12-27T02:22:28.286Z,1.93
2022-12-27T02:25:19.518Z,1.50
2022-12-27T02:27:55.171Z,1.87
2022-12-27T02:30:22.002Z,1.80
2022-12-27T02:33:00.789Z,1.60
2022-12-27T02:35:36.609Z,1.60
2022-12-27T02:38:27.598Z,2.10
2022-12-27T02:41:15.437Z,1.97
2022-12-27T02:44:00.889Z,1.77
2022-12-27T02:46:48.891Z,2.10
2022-12-27T02:49:50.691Z,2.10
2022-12-27T02:53:04.570Z,1.90
2022-12-27T02:55:34.646Z,1.83
2022-12-27T02:58:22.548Z,2.07
2022-12-27T03:01:36.146Z,2.40
2022-12-27T03:04:14.831Z,1.60
2022-12-27T03:07:07.245Z,2.00
2022-12-27T03:10:21.161Z,2.10
2022-12-27T03:13:25.658Z,1.80
2022-12-27T03:16:01.247Z,1.90
2022-12-27T03:18:28.002Z,1.80
2022-12-27T03:21:16.945Z,2.20
2022-12-27T03:24:04.657Z,2.07
2022-12-27T03:26:34.545Z,1.90
2022-12-27T03:29:21.519Z,2.10
2022-12-27T03:32:14.018Z,1.90
2022-12-27T03:34:48.813Z,1.83
2022-12-27T03:37:38.818Z,1.90
2022-12-27T03:40:20.489Z,1.67
2022-12-27T03:43:12.658Z,1.73
2022-12-27T03:46:34.531Z,1.90
2022-12-27T03:49:19.386Z,1.53
2022-12-27T03:52:14.976Z,1.80
2022-12-27T03:54:44.155Z,1.63
2022-12-27T03:57:17.336Z,2.10
2022-12-27T03:59:44.336Z,1.83
2022-12-27T04:02:11.181Z,1.50
2022-12-27T04:04:38.671Z,1.77
2022-12-27T04:07:06.371Z,1.60
2022-12-27T04:09:51.578Z,1.80
2022-12-27T04:12:37.283Z,1.60
2022-12-27T04:15:22.616Z,2.10
2022-12-27T04:18:08.107Z,1.67
2022-12-27T04:20:53.589Z,1.60
2022-12-27T04:23:39.020Z,2.10
2022-12-27T04:26:24.634Z,1.60
2022-12-27T04:29:10.054Z,2.10
2022-12-27T04:31:55.607Z,1.80
2022-12-27T04:34:40.880Z,1.50
2022-12-27T04:37:08.481Z,1.90
2022-12-27T04:39:35.641Z,1.87
2022-12-27T04:42:21.126Z,1.80
2022-12-27T04:45:11.610Z,2.30
2022-12-27T04:48:00.726Z,1.70
2022-12-27T04:50:48.487Z,2.00
2022-12-27T04:53:35.900Z,1.77
2022-12-27T04:56:03.049Z,1.60
2022-12-27T04:58:30.093Z,1.70
2022-12-27T05:01:18.248Z,1.77
2022-12-27T05:03:46.725Z,1.60
2022-12-27T05:06:13.666Z,1.50
2022-12-27T05:08:59.452Z,1.93
2022-12-27T05:11:45.108Z,1.80
2022-12-27T05:14:14.326Z,1.80
2022-12-27T05:16:43.050Z,2.10
2022-12-27T05:19:12.938Z,2.50
2022-12-27T05:22:03.320Z,2.40
2022-12-27T05:24:49.175Z,1.70
2022-12-27T05:27:16.644Z,2.23
2022-12-27T05:29:43.469Z,2.00
2022-12-27T05:32:13.260Z,1.77
2022-12-27T05:34:41.180Z,2.00
2022-12-27T05:37:08.193Z,1.77
2022-12-27T05:39:35.007Z,1.87
2022-12-27T05:42:02.075Z,2.00
2022-12-27T05:44:29.057Z,1.73
2022-12-27T05:46:55.951Z,1.83
2022-12-27T05:49:23.138Z,2.43
2022-12-27T05:51:49.856Z,1.57
2022-12-27T05:54:16.628Z,1.93
2022-12-27T05:56:43.305Z,2.00
2022-12-27T05:59:10.132Z,1.83
2022-12-27T06:01:36.900Z,1.83
2022-12-27T06:04:03.766Z,2.23
2022-12-27T06:06:30.509Z,1.77
2022-12-27T06:08:57.293Z,2.00
2022-12-27T06:11:24.057Z,1.90
2022-12-27T06:13:53.775Z,1.90
2022-12-27T06:16:22.590Z,2.30
2022-12-27T06:18:49.673Z,1.90
2022-12-27T06:21:19.783Z,2.00
2022-12-27T06:23:47.463Z,2.20
2022-12-27T06:26:21.012Z,2.23
2022-12-27T06:28:49.657Z,2.57
2022-12-27T06:31:18.157Z,1.90
2022-12-27T06:33:46.217Z,2.30
2022-12-27T06:36:15.294Z,2.20
2022-12-27T06:38:42.234Z,2.10
2022-12-27T06:41:10.871Z,2.17
2022-12-27T06:43:38.405Z,2.20
2022-12-27T06:46:10.288Z,2.13
2022-12-27T06:48:40.686Z,2.53
2022-12-27T06:51:10.290Z,2.07
2022-12-27T06:53:37.683Z,2.23
2022-12-27T06:56:10.261Z,2.00
2022-12-27T06:58:37.111Z,1.77
2022-12-27T07:01:11.567Z,1.90
2022-12-27T07:03:38.778Z,2.30
2022-12-27T07:06:07.064Z,2.00
2022-12-27T07:08:35.611Z,2.30
2022-12-27T07:11:06.359Z,2.40
2022-12-27T07:13:38.600Z,2.50
2022-12-27T07:16:07.343Z,2.47
2022-12-27T07:18:34.924Z,2.77
2022-12-27T07:21:11.080Z,3.07
2022-12-27T07:23:38.357Z,3.20
2022-12-27T07:26:07.639Z,3.00
2022-12-27T07:28:34.927Z,3.10
2022-12-27T07:31:08.012Z,2.70
2022-12-27T07:33:35.871Z,3.07
2022-12-27T07:36:03.283Z,3.00
2022-12-27T07:38:30.025Z,2.70
2022-12-27T07:41:00.118Z,2.63
2022-12-27T07:43:30.914Z,2.53
2022-12-27T07:46:14.802Z,2.53
2022-12-27T07:48:42.559Z,2.87
2022-12-27T07:51:09.680Z,2.43
2022-12-27T07:53:36.704Z,2.33
2022-12-27T07:56:12.598Z,3.10
2022-12-27T07:58:41.464Z,1.80
2022-12-27T08:01:10.879Z,2.27
2022-12-27T08:03:38.405Z,2.60
2022-12-27T08:06:06.496Z,3.80
2022-12-27T08:08:40.922Z,3.33
2022-12-27T08:11:07.775Z,3.23
2022-12-27T08:13:35.074Z,2.07
2022-12-27T08:16:01.915Z,2.70
2022-12-27T08:18:28.648Z,2.80
2022-12-27T08:20:55.575Z,3.03
2022-12-27T08:23:22.517Z,3.03
2022-12-27T08:25:49.377Z,3.83
2022-12-27T08:28:18.087Z,3.13
2022-12-27T08:30:46.087Z,3.80
2022-12-27T08:33:12.945Z,3.83
2022-12-27T08:35:52.850Z,3.60
2022-12-27T08:38:20.587Z,4.00
2022-12-27T08:40:47.376Z,3.23
2022-12-27T08:43:14.653Z,3.80
2022-12-27T08:45:41.416Z,3.00
2022-12-27T08:48:08.245Z,3.93
2022-12-27T08:50:35.000Z,3.10
2022-12-27T08:53:04.246Z,3.00
2022-12-27T08:55:31.360Z,2.77
2022-12-27T08:58:03.793Z,2.93
2022-12-27T09:00:31.650Z,1.90
2022-12-27T09:02:58.781Z,2.60
2022-12-27T09:05:26.928Z,2.40
2022-12-27T09:07:53.989Z,2.90
2022-12-27T09:10:22.302Z,2.50
2022-12-27T09:12:49.281Z,2.30
2022-12-27T09:15:16.497Z,2.40
2022-12-27T09:17:46.683Z,2.80
2022-12-27T09:20:13.472Z,2.60
2022-12-27T09:22:40.336Z,3.20
2022-12-27T09:25:07.974Z,2.40
2022-12-27T09:27:36.396Z,3.20
2022-12-27T09:30:07.943Z,3.00
2022-12-27T09:32:34.741Z,2.77
2022-12-27T09:35:01.839Z,2.87
2022-12-27T09:37:28.609Z,3.33
2022-12-27T09:39:55.301Z,2.57
2022-12-27T09:43:01.971Z,2.40
2022-12-27T09:45:41.733Z,3.20
2022-12-27T09:48:15.997Z,2.67
2022-12-27T09:51:15.991Z,2.50
2022-12-27T09:54:11.963Z,2.90
2022-12-27T09:57:09.580Z,2.53
2022-12-27T09:59:37.054Z,2.77
2022-12-27T10:02:18.800Z,3.07
2022-12-27T10:05:18.491Z,2.90
2022-12-27T10:08:09.669Z,2.50
2022-12-27T10:10:55.730Z,2.90
2022-12-27T10:13:52.824Z,2.67
2022-12-27T10:16:36.236Z,2.87
2022-12-27T10:19:16.647Z,2.50
2022-12-27T10:22:06.619Z,2.90
2022-12-27T10:24:54.250Z,3.17
2022-12-27T10:27:26.947Z,3.13
2022-12-27T10:29:59.749Z,2.87
2022-12-27T10:32:27.007Z,2.83
2022-12-27T10:35:01.200Z,3.00
2022-12-27T10:37:28.869Z,2.30
2022-12-27T10:40:04.208Z,3.13
2022-12-27T10:42:41.796Z,3.10
2022-12-27T10:45:39.233Z,2.60
2022-12-27T10:48:15.263Z,2.90
2022-12-27T10:51:01.404Z,2.43
2022-12-27T10:53:46.628Z,3.53
2022-12-27T10:56:16.918Z,3.10
2022-12-27T10:58:45.451Z,3.10
2022-12-27T11:01:26.949Z,2.70
2022-12-27T11:04:23.263Z,3.07
2022-12-27T11:06:51.697Z,3.10
2022-12-27T11:09:18.427Z,2.70
2022-12-27T11:11:45.128Z,2.90
2022-12-27T11:14:19.318Z,2.77
2022-12-27T11:16:46.997Z,2.70
2022-12-27T11:19:26.255Z,1.90
2022-12-27T11:21:54.826Z,2.67
2022-12-27T11:24:22.463Z,1.90
2022-12-27T11:26:58.133Z,2.43
2022-12-27T11:29:28.262Z,2.27
2022-12-27T11:31:55.603Z,2.57
2022-12-27T11:34:32.415Z,2.47
2022-12-27T11:37:14.266Z,3.00
2022-12-27T11:39:46.572Z,2.40
2022-12-27T11:42:28.442Z,2.43
2022-12-27T11:45:06.500Z,2.47
2022-12-27T11:47:40.965Z,2.57
2022-12-27T11:50:32.152Z,2.23
2022-12-27T11:53:17.663Z,1.83
2022-12-27T11:56:12.917Z,2.07
2022-12-27T11:58:49.023Z,1.90
2022-12-27T12:01:33.069Z,1.77
2022-12-27T12:04:03.691Z,1.80
2022-12-27T12:06:49.669Z,2.20
2022-12-27T12:09:36.296Z,1.73
2022-12-27T12:12:09.136Z,1.97
2022-12-27T12:15:13.798Z,2.10
2022-12-27T12:17:59.005Z,2.00
2022-12-27T12:20:38.432Z,2.27
2022-12-27T12:23:12.832Z,2.33
2022-12-27T12:25:42.744Z,1.80
2022-12-27T12:28:55.731Z,1.93
2022-12-27T12:31:34.575Z,1.80
2022-12-27T12:34:38.591Z,1.93
2022-12-27T12:37:05.233Z,1.70
2022-12-27T12:39:54.831Z,1.97
2022-12-27T12:42:21.636Z,1.80
2022-12-27T12:44:54.519Z,2.07
2022-12-27T12:47:51.870Z,1.50
2022-12-27T12:50:21.440Z,1.40
2022-12-27T12:53:11.267Z,1.80
2022-12-27T12:55:58.464Z,1.70
2022-12-27T12:58:33.761Z,1.60
2022-12-27T13:01:30.054Z,1.90
2022-12-27T13:04:01.950Z,1.80
2022-12-27T13:06:50.671Z,2.10
2022-12-27T13:09:37.823Z,2.17
2022-12-27T13:12:35.631Z,2.53
2022-12-27T13:15:05.236Z,2.50
2022-12-27T13:17:53.483Z,2.07
2022-12-27T13:21:00.260Z,1.87
2022-12-27T13:23:44.990Z,2.00
2022-12-27T13:26:35.797Z,2.00
2022-12-27T13:29:11.321Z,2.53
2022-12-27T13:31:57.252Z,1.97
2022-12-27T13:34:58.797Z,1.90
2022-12-27T13:37:36.487Z,1.73
2022-12-27T13:40:40.787Z,1.80
2022-12-27T13:43:19.239Z,2.47
2022-12-27T13:46:01.817Z,2.00
2022-12-27T13:48:56.769Z,2.17
2022-12-27T13:51:42.301Z,2.10
2022-12-27T13:54:36.761Z,1.87
2022-12-27T13:57:35.702Z,2.50
2022-12-27T14:00:11.699Z,2.43
2022-12-27T14:02:38.670Z,1.67
2022-12-27T14:05:32.564Z,1.57
2022-12-27T14:08:52.988Z,2.07
2022-12-27T14:11:37.808Z,2.40
2022-12-27T14:14:05.555Z,1.80
2022-12-27T14:17:06.040Z,1.50
2022-12-27T14:19:49.433Z,1.43
2022-12-27T14:22:40.819Z,2.20
2022-12-27T14:25:38.575Z,1.93
2022-12-27T14:28:24.239Z,1.40
2022-12-27T14:31:16.640Z,1.90
2022-12-27T14:34:20.665Z,1.60
2022-12-27T14:37:08.629Z,1.43
2022-12-27T14:40:06.142Z,2.00
2022-12-27T14:43:20.393Z,1.80
2022-12-27T14:46:17.802Z,2.07
2022-12-27T14:49:15.563Z,2.30
2022-12-27T14:52:12.362Z,2.60
2022-12-27T14:55:04.433Z,2.50
2022-12-27T14:57:55.324Z,2.30
2022-12-27T15:00:24.588Z,2.10
2022-12-27T15:03:07.234Z,1.83
2022-12-27T15:05:52.662Z,2.30
2022-12-27T15:08:19.363Z,1.97
2022-12-27T15:10:52.141Z,2.80
2022-12-27T15:13:50.139Z,2.83
2022-12-27T15:16:43.220Z,2.60
2022-12-27T15:19:18.825Z,2.10
2022-12-27T15:22:15.429Z,2.83
2022-12-27T15:25:14.781Z,3.00
2022-12-27T15:28:19.839Z,2.93
2022-12-27T15:31:01.389Z,3.80
2022-12-27T15:33:48.728Z,3.10
2022-12-27T15:36:17.821Z,3.60
2022-12-27T15:38:55.366Z,2.93
2022-12-27T15:41:43.498Z,3.00
2022-12-27T15:44:34.500Z,3.53
2022-12-27T15:47:38.841Z,3.87
2022-12-27T15:50:40.516Z,5.33
2022-12-27T15:53:20.853Z,4.67
2022-12-27T15:56:18.225Z,3.97
2022-12-27T15:58:45.416Z,4.20
2022-12-27T16:01:23.908Z,3.80
2022-12-27T16:03:53.438Z,3.73
2022-12-27T16:06:35.632Z,3.97
2022-12-27T16:09:24.259Z,3.50
2022-12-27T16:12:10.821Z,3.87
2022-12-27T16:14:40.387Z,3.10
2022-12-27T16:17:27.332Z,3.60
2022-12-27T16:19:53.994Z,3.57
2022-12-27T16:22:39.865Z,3.63
2022-12-27T16:25:37.542Z,4.80
2022-12-27T16:28:07.674Z,3.00
2022-12-27T16:30:35.389Z,2.93
2022-12-27T16:33:03.591Z,3.50
2022-12-27T16:35:31.288Z,3.87
2022-12-27T16:38:03.479Z,3.63
2022-12-27T16:40:38.833Z,3.30
2022-12-27T16:43:05.413Z,3.60
2022-12-27T16:45:52.406Z,3.77
2022-12-27T16:49:04.429Z,3.80
2022-12-27T16:51:50.495Z,3.67
2022-12-27T16:54:42.603Z,3.93
2022-12-27T16:57:24.275Z,3.97
2022-12-27T17:00:00.271Z,3.87
2022-12-27T17:02:46.355Z,3.80
2022-12-27T17:05:16.045Z,4.50
2022-12-27T17:07:55.761Z,4.10
2022-12-27T17:10:25.237Z,6.67
2022-12-27T17:12:59.445Z,22.00
2022-12-27T17:15:27.552Z,15.30
2022-12-27T17:17:58.106Z,7.40
2022-12-27T17:20:25.325Z,6.10
2022-12-27T17:22:57.197Z,5.10
2022-12-27T17:25:37.000Z,5.10
2022-12-27T17:28:19.490Z,5.40
2022-12-27T17:30:54.969Z,5.00
2022-12-27T17:33:52.470Z,8.30
2022-12-27T17:36:38.039Z,7.60
2022-12-27T17:39:33.833Z,5.47
2022-12-27T17:42:24.928Z,4.87
2022-12-27T17:45:22.145Z,4.90
2022-12-27T17:48:03.592Z,6.70
2022-12-27T17:50:30.767Z,7.23
2022-12-27T17:53:34.073Z,6.43
2022-12-27T17:56:39.212Z,6.50
2022-12-27T17:59:39.221Z,6.20
2022-12-27T18:02:19.940Z,6.47
2022-12-27T18:04:55.375Z,8.37
2022-12-27T18:07:28.320Z,7.80
2022-12-27T18:09:58.167Z,6.80
2022-12-27T18:12:28.957Z,6.07
2022-12-27T18:15:02.807Z,10.90
2022-12-27T18:17:52.181Z,7.70
2022-12-27T18:20:30.516Z,8.80
2022-12-27T18:23:03.271Z,8.60
2022-12-27T18:25:33.866Z,11.47
2022-12-27T18:28:03.001Z,10.60
2022-12-27T18:30:35.907Z,9.27
2022-12-27T18:33:03.772Z,7.90
2022-12-27T18:35:31.155Z,8.50
2022-12-27T18:37:57.956Z,7.60
2022-12-27T18:40:26.301Z,7.70
2022-12-27T18:42:54.454Z,8.70
2022-12-27T18:45:28.216Z,10.37
2022-12-27T18:47:57.669Z,9.40
2022-12-27T18:50:30.875Z,14.67
2022-12-27T18:53:06.468Z,13.40
2022-12-27T18:55:34.216Z,9.20
2022-12-27T18:58:19.873Z,35.90
2022-12-27T19:01:19.120Z,15.17
2022-12-27T19:04:25.329Z,20.80
2022-12-27T19:06:51.951Z,16.83
2022-12-27T19:09:21.032Z,21.60
2022-12-27T19:12:05.112Z,20.97
2022-12-27T19:14:43.837Z,21.87
2022-12-27T19:17:30.898Z,29.37
2022-12-27T19:20:03.459Z,10.67
2022-12-27T19:22:57.345Z,19.57
2022-12-27T19:25:27.821Z,14.70
2022-12-27T19:28:09.586Z,12.53
2022-12-27T19:30:41.881Z,12.30
2022-12-27T19:33:29.234Z,14.57
2022-12-27T19:35:57.040Z,21.53
2022-12-27T19:38:26.983Z,12.17
2022-12-27T19:41:02.845Z,11.30
2022-12-27T19:43:38.922Z,10.80
2022-12-27T19:46:05.843Z,9.30
2022-12-27T19:48:32.682Z,9.90
2022-12-27T19:50:59.785Z,12.53
2022-12-27T19:53:36.523Z,15.03
2022-12-27T19:56:03.530Z,12.83
2022-12-27T19:58:30.851Z,11.37
2022-12-27T20:00:58.433Z,12.30
2022-12-27T20:03:26.148Z,11.37
2022-12-27T20:06:14.985Z,12.30
2022-12-27T20:08:48.283Z,12.37
2022-12-27T20:11:18.194Z,11.57
2022-12-27T20:13:45.541Z,11.63
2022-12-27T20:16:14.617Z,11.43
2022-12-27T20:18:42.743Z,11.37
2022-12-27T20:21:14.284Z,11.20
2022-12-27T20:23:41.339Z,10.50
2022-12-27T20:26:08.498Z,11.03
2022-12-27T20:28:35.203Z,11.53
2022-12-27T20:31:15.868Z,10.47
2022-12-27T20:33:43.010Z,10.60
2022-12-27T20:36:10.419Z,10.83
2022-12-27T20:38:40.313Z,11.70
2022-12-27T20:41:09.609Z,15.97
2022-12-27T20:43:36.562Z,11.83
2022-12-27T20:46:08.235Z,10.40
2022-12-27T20:48:39.802Z,11.70
2022-12-27T20:51:14.953Z,10.13
2022-12-27T20:53:42.236Z,11.20
2022-12-27T20:56:09.134Z,9.93
2022-12-27T20:58:35.950Z,9.33
2022-12-27T21:01:10.164Z,10.40
2022-12-27T21:03:38.070Z,10.10
2022-12-27T21:06:09.598Z,11.20
2022-12-27T21:08:44.641Z,9.67
2022-12-27T21:11:19.538Z,9.83
2022-12-27T21:13:46.886Z,10.40
2022-12-27T21:16:16.427Z,9.00
2022-12-27T21:18:43.206Z,9.83
2022-12-27T21:21:13.804Z,9.93
2022-12-27T21:23:40.908Z,9.70
2022-12-27T21:26:09.073Z,9.43
2022-12-27T21:28:36.775Z,9.93
2022-12-27T21:31:04.880Z,10.77
2022-12-27T21:33:32.465Z,10.03
2022-12-27T21:36:12.193Z,10.33
2022-12-27T21:38:39.184Z,10.40
2022-12-27T21:41:09.683Z,10.47
2022-12-27T21:43:36.397Z,9.57
2022-12-27T21:46:08.531Z,9.53
2022-12-27T21:48:36.034Z,10.50
2022-12-27T21:51:07.930Z,10.43
2022-12-27T21:53:34.889Z,10.33
2022-12-27T21:56:02.136Z,9.13
2022-12-27T21:58:33.779Z,10.00
2022-12-27T22:01:08.314Z,10.60
2022-12-27T22:03:38.043Z,10.27
2022-12-27T22:06:11.368Z,9.23
2022-12-27T22:08:38.514Z,9.33
2022-12-27T22:11:05.645Z,9.10
2022-12-27T22:13:33.220Z,9.50
2022-12-27T22:16:02.872Z,9.83
2022-12-27T22:18:37.141Z,8.50
2022-12-27T22:21:06.187Z,9.00
2022-12-27T22:23:37.452Z,8.70
2022-12-27T22:26:09.267Z,9.80
2022-12-27T22:28:35.989Z,9.60
2022-12-27T22:31:07.280Z,8.70
2022-12-27T22:33:35.329Z,9.90
2022-12-27T22:36:06.923Z,8.70
2022-12-27T22:38:34.005Z,9.20
2022-12-27T22:41:06.052Z,9.70
2022-12-27T22:43:32.721Z,8.70
2022-12-27T22:45:59.426Z,10.00
2022-12-27T22:48:26.332Z,8.60
2022-12-27T22:50:53.139Z,8.00
2022-12-27T22:53:19.787Z,8.93
2022-12-27T22:55:48.851Z,7.90
2022-12-27T22:58:16.779Z,8.40
2022-12-27T23:00:44.035Z,8.20
2022-12-27T23:03:10.814Z,6.80
2022-12-27T23:05:37.444Z,7.37
2022-12-27T23:08:07.064Z,7.53
2022-12-27T23:10:34.156Z,6.93
2022-12-27T23:13:00.823Z,6.87
2022-12-27T23:15:27.677Z,7.83
2022-12-27T23:17:54.322Z,7.47
2022-12-27T23:20:21.023Z,6.50
2022-12-27T23:22:48.033Z,8.60
2022-12-27T23:25:14.844Z,8.23
2022-12-27T23:27:41.562Z,5.83
2022-12-27T23:30:08.871Z,6.20
2022-12-27T23:32:35.588Z,7.70
2022-12-27T23:35:02.257Z,6.80
2022-12-27T23:37:28.920Z,7.27
2022-12-27T23:39:55.633Z,7.00
2022-12-27T23:42:22.353Z,6.60
2022-12-27T23:44:49.073Z,9.70
2022-12-27T23:47:15.737Z,10.80
2022-12-27T23:49:42.475Z,7.87
2022-12-27T23:52:09.347Z,7.50
2022-12-27T23:54:36.000Z,7.27
2022-12-27T23:57:22.262Z,6.87
2022-12-27T23:59:49.705Z,6.23
